sensor_id;sensor_type;location;lat;lon;timestamp;pressure;altitude;pressure_sealevel;temperature;humidity
17781;BME280;8498;52.516;13.790;2023-01-28T00:00:45;102187.34;;;-0.04;89.16
17781;BME280;8498;52.516;13.790;2023-01-28T00:06:11;102190.84;;;-0.07;88.51
17781;BME280;8498;52.516;13.790;2023-01-28T00:11:34;102196.06;;;-0.16;89.37
17781;BME280;8498;52.516;13.790;2023-01-28T00:16:56;102196.06;;;-0.22;89.37
17781;BME280;8498;52.516;13.790;2023-01-28T00:22:19;102186.47;;;-0.29;88.58
17781;BME280;8498;52.516;13.790;2023-01-28T00:27:41;102195.19;;;-0.33;88.97
17781;BME280;8498;52.516;13.790;2023-01-28T00:33:04;102197.78;;;-0.42;89.64
17781;BME280;8498;52.516;13.790;2023-01-28T00:38:27;102204.72;;;-0.41;88.68
17781;BME280;8498;52.516;13.790;2023-01-28T00:43:50;102206.47;;;-0.49;88.75
17781;BME280;8498;52.516;13.790;2023-01-28T00:49:13;102209.06;;;-0.63;89.11
17781;BME280;8498;52.516;13.790;2023-01-28T00:54:36;102209.06;;;-0.66;89.49
17781;BME280;8498;52.516;13.790;2023-01-28T00:59:59;102219.50;;;-0.66;89.11
17781;BME280;8498;52.516;13.790;2023-01-28T01:05:22;102215.13;;;-0.71;89.08
17781;BME280;8498;52.516;13.790;2023-01-28T01:10:44;102220.34;;;-0.76;88.87
17781;BME280;8498;52.516;13.790;2023-01-28T01:16:09;102221.19;;;-0.77;88.86
17781;BME280;8498;52.516;13.790;2023-01-28T01:21:31;102217.75;;;-0.75;88.28
17781;BME280;8498;52.516;13.790;2023-01-28T01:26:54;102219.50;;;-0.73;88.92
17781;BME280;8498;52.516;13.790;2023-01-28T01:32:16;102213.38;;;-0.69;89.11
17781;BME280;8498;52.516;13.790;2023-01-28T01:37:42;102209.94;;;-0.59;89.24
17781;BME280;8498;52.516;13.790;2023-01-28T01:43:17;102223.88;;;-0.48;90.05
17781;BME280;8498;52.516;13.790;2023-01-28T01:48:40;102225.66;;;-0.35;89.99
17781;BME280;8498;52.516;13.790;2023-01-28T01:54:03;102232.63;;;-0.25;90.68
17781;BME280;8498;52.516;13.790;2023-01-28T01:59:30;102235.25;;;-0.14;90.53
17781;BME280;8498;52.516;13.790;2023-01-28T02:04:53;102237.00;;;-0.03;90.73
17781;BME280;8498;52.516;13.790;2023-01-28T02:10:16;102237.84;;;0.04;90.54
17781;BME280;8498;52.516;13.790;2023-01-28T02:15:39;102235.25;;;0.16;90.62
17781;BME280;8498;52.516;13.790;2023-01-28T02:26:48;102225.66;;;0.29;90.90
17781;BME280;8498;52.516;13.790;2023-01-28T02:32:23;102226.53;;;0.39;91.10
17781;BME280;8498;52.516;13.790;2023-01-28T02:37:57;102224.75;;;0.44;91.16
17781;BME280;8498;52.516;13.790;2023-01-28T02:43:31;102228.25;;;0.47;91.50
17781;BME280;8498;52.516;13.790;2023-01-28T02:48:54;102233.47;;;0.52;91.33
17781;BME280;8498;52.516;13.790;2023-01-28T03:00:48;102241.28;;;0.56;91.65
17781;BME280;8498;52.516;13.790;2023-01-28T03:06:06;102236.94;;;0.58;91.74
17781;BME280;8498;52.516;13.790;2023-01-28T03:11:35;102239.56;;;0.61;91.98
17781;BME280;8498;52.516;13.790;2023-01-28T03:17:29;102237.78;;;0.71;91.88
17781;BME280;8498;52.516;13.790;2023-01-28T03:23:15;102233.38;;;0.73;91.61
17781;BME280;8498;52.516;13.790;2023-01-28T03:29:06;102232.53;;;0.79;91.95
17781;BME280;8498;52.516;13.790;2023-01-28T03:34:48;102237.75;;;0.82;91.97
17781;BME280;8498;52.516;13.790;2023-01-28T03:40:30;102231.63;;;0.87;91.70
17781;BME280;8498;52.516;13.790;2023-01-28T03:45:53;102233.34;;;0.90;91.25
17781;BME280;8498;52.516;13.790;2023-01-28T03:51:19;102229.88;;;0.89;91.54
17781;BME280;8498;52.516;13.790;2023-01-28T03:56:41;102230.69;;;1.02;90.85
17781;BME280;8498;52.516;13.790;2023-01-28T04:02:04;102235.06;;;1.01;90.66
17781;BME280;8498;52.516;13.790;2023-01-28T04:07:27;102237.69;;;1.03;90.65
17781;BME280;8498;52.516;13.790;2023-01-28T04:13:10;102228.09;;;1.03;91.34
17781;BME280;8498;52.516;13.790;2023-01-28T04:18:35;102231.53;;;1.05;90.88
17781;BME280;8498;52.516;13.790;2023-01-28T04:23:58;102221.94;;;1.09;90.40
17781;BME280;8498;52.516;13.790;2023-01-28T04:29:21;102224.50;;;1.20;90.71
17781;BME280;8498;52.516;13.790;2023-01-28T04:34:45;102221.88;;;1.18;90.48
17781;BME280;8498;52.516;13.790;2023-01-28T04:40:17;102239.34;;;1.16;90.72
17781;BME280;8498;52.516;13.790;2023-01-28T04:45:57;102232.34;;;1.18;90.35
17781;BME280;8498;52.516;13.790;2023-01-28T04:51:38;102225.34;;;1.25;90.45
17781;BME280;8498;52.516;13.790;2023-01-28T04:57:17;102237.59;;;1.21;90.22
17781;BME280;8498;52.516;13.790;2023-01-28T05:02:40;102231.44;;;1.33;90.06
17781;BME280;8498;52.516;13.790;2023-01-28T05:08:03;102237.53;;;1.33;89.21
17781;BME280;8498;52.516;13.790;2023-01-28T05:13:25;102238.47;;;1.23;89.44
17781;BME280;8498;52.516;13.790;2023-01-28T05:18:48;102253.28;;;1.21;89.28
17781;BME280;8498;52.516;13.790;2023-01-28T05:24:13;102252.41;;;1.22;90.44
17781;BME280;8498;52.516;13.790;2023-01-28T05:29:38;102253.28;;;1.21;90.02
17781;BME280;8498;52.516;13.790;2023-01-28T05:35:00;102264.63;;;1.22;90.52
17781;BME280;8498;52.516;13.790;2023-01-28T05:40:22;102253.25;;;1.33;90.40
17781;BME280;8498;52.516;13.790;2023-01-28T05:45:45;102264.59;;;1.32;90.15
17781;BME280;8498;52.516;13.790;2023-01-28T05:51:17;102263.72;;;1.33;90.10
17781;BME280;8498;52.516;13.790;2023-01-28T05:56:47;102259.31;;;1.38;89.85
17781;BME280;8498;52.516;13.790;2023-01-28T06:02:11;102264.59;;;1.34;89.50
17781;BME280;8498;52.516;13.790;2023-01-28T06:07:33;102272.41;;;1.35;89.82
17781;BME280;8498;52.516;13.790;2023-01-28T06:12:56;102267.16;;;1.38;89.95
17781;BME280;8498;52.516;13.790;2023-01-28T06:18:24;102271.53;;;1.36;90.05
17781;BME280;8498;52.516;13.790;2023-01-28T06:23:48;102268.03;;;1.37;89.66
17781;BME280;8498;52.516;13.790;2023-01-28T06:29:10;102271.56;;;1.33;90.11
17781;BME280;8498;52.516;13.790;2023-01-28T06:34:32;102269.78;;;1.40;90.09
17781;BME280;8498;52.516;13.790;2023-01-28T06:39:55;102276.75;;;1.42;89.29
17781;BME280;8498;52.516;13.790;2023-01-28T06:45:18;102268.03;;;1.39;88.58
17781;BME280;8498;52.516;13.790;2023-01-28T06:50:40;102277.63;;;1.43;88.69
17781;BME280;8498;52.516;13.790;2023-01-28T06:56:03;102282.81;;;1.47;88.59
17781;BME280;8498;52.516;13.790;2023-01-28T07:01:26;102275.84;;;1.50;88.28
17781;BME280;8498;52.516;13.790;2023-01-28T07:06:48;102279.28;;;1.56;88.40
17781;BME280;8498;52.516;13.790;2023-01-28T07:12:11;102280.16;;;1.60;88.60
17781;BME280;8498;52.516;13.790;2023-01-28T07:17:34;102281.06;;;1.53;88.08
17781;BME280;8498;52.516;13.790;2023-01-28T07:22:58;102288.91;;;1.56;88.31
17781;BME280;8498;52.516;13.790;2023-01-28T07:28:21;102281.03;;;1.57;88.57
17781;BME280;8498;52.516;13.790;2023-01-28T07:33:43;102289.69;;;1.70;88.46
17781;BME280;8498;52.516;13.790;2023-01-28T07:39:06;102280.97;;;1.68;87.48
17781;BME280;8498;52.516;13.790;2023-01-28T07:44:29;102287.88;;;1.81;87.99
17781;BME280;8498;52.516;13.790;2023-01-28T07:49:51;102290.53;;;1.76;88.29
17781;BME280;8498;52.516;13.790;2023-01-28T07:55:17;102296.59;;;1.86;87.34
17781;BME280;8498;52.516;13.790;2023-01-28T08:00:39;102290.44;;;1.92;87.99
17781;BME280;8498;52.516;13.790;2023-01-28T08:06:02;102289.56;;;1.94;87.83
17781;BME280;8498;52.516;13.790;2023-01-28T08:11:24;102289.47;;;2.06;87.06
17781;BME280;8498;52.516;13.790;2023-01-28T08:16:46;102295.53;;;2.11;87.07
17781;BME280;8498;52.516;13.790;2023-01-28T08:22:09;102299.84;;;2.18;86.55
17781;BME280;8498;52.516;13.790;2023-01-28T08:27:31;102301.56;;;2.22;86.58
17781;BME280;8498;52.516;13.790;2023-01-28T08:32:57;102303.28;;;2.28;85.45
17781;BME280;8498;52.516;13.790;2023-01-28T08:38:20;102312.84;;;2.35;85.49
17781;BME280;8498;52.516;13.790;2023-01-28T08:43:44;102321.41;;;2.52;84.24
17781;BME280;8498;52.516;13.790;2023-01-28T08:49:06;102323.06;;;2.67;83.04
17781;BME280;8498;52.516;13.790;2023-01-28T08:54:28;102325.69;;;2.64;82.74
17781;BME280;8498;52.516;13.790;2023-01-28T08:59:51;102325.69;;;2.63;82.86
17781;BME280;8498;52.516;13.790;2023-01-28T09:05:14;102340.56;;;2.65;82.02
17781;BME280;8498;52.516;13.790;2023-01-28T09:10:37;102350.97;;;2.74;81.28
17781;BME280;8498;52.516;13.790;2023-01-28T09:15:59;102338.59;;;2.87;80.68
17781;BME280;8498;52.516;13.790;2023-01-28T09:21:22;102361.25;;;2.95;79.74
17781;BME280;8498;52.516;13.790;2023-01-28T09:26:47;102354.28;;;2.93;80.24
17781;BME280;8498;52.516;13.790;2023-01-28T09:32:09;102369.13;;;2.95;81.02
17781;BME280;8498;52.516;13.790;2023-01-28T09:37:32;102369.94;;;3.02;79.27
17781;BME280;8498;52.516;13.790;2023-01-28T09:48:54;102361.94;;;3.14;77.09
17781;BME280;8498;52.516;13.790;2023-01-28T09:54:42;102365.28;;;3.28;77.33
17781;BME280;8498;52.516;13.790;2023-01-28T10:00:17;102369.59;;;3.36;76.57
17781;BME280;8498;52.516;13.790;2023-01-28T10:05:45;102371.28;;;3.41;74.94
17781;BME280;8498;52.516;13.790;2023-01-28T10:17:11;102359.72;;;3.54;72.75
17781;BME280;8498;52.516;13.790;2023-01-28T10:22:44;102353.50;;;3.63;72.63
17781;BME280;8498;52.516;13.790;2023-01-28T10:28:17;102348.88;;;3.80;72.03
17781;BME280;8498;52.516;13.790;2023-01-28T10:33:40;102347.25;;;3.72;69.17
17781;BME280;8498;52.516;13.790;2023-01-28T10:39:03;102352.44;;;3.76;69.33
17781;BME280;8498;52.516;13.790;2023-01-28T10:44:28;102340.00;;;3.89;69.84
17781;BME280;8498;52.516;13.790;2023-01-28T10:49:53;102335.47;;;4.00;67.39
17781;BME280;8498;52.516;13.790;2023-01-28T10:55:20;102339.66;;;4.12;67.57
17781;BME280;8498;52.516;13.790;2023-01-28T11:00:43;102344.84;;;4.16;67.91
17781;BME280;8498;52.516;13.790;2023-01-28T11:06:05;102346.53;;;4.20;66.88
17781;BME280;8498;52.516;13.790;2023-01-28T11:11:28;102358.13;;;4.07;65.61
17781;BME280;8498;52.516;13.790;2023-01-28T11:16:53;102343.13;;;4.15;66.02
17781;BME280;8498;52.516;13.790;2023-01-28T11:22:27;102350.00;;;4.25;66.84
17781;BME280;8498;52.516;13.790;2023-01-28T11:27:54;102341.28;;;4.20;63.61
17781;BME280;8498;52.516;13.790;2023-01-28T11:33:21;102339.59;;;4.16;64.74
17781;BME280;8498;52.516;13.790;2023-01-28T11:44:22;102326.53;;;4.12;64.68
17781;BME280;8498;52.516;13.790;2023-01-28T11:55:42;102318.78;;;4.01;62.34
17781;BME280;8498;52.516;13.790;2023-01-28T12:01:16;102310.00;;;4.02;62.22
17781;BME280;8498;52.516;13.790;2023-01-28T12:07:29;102307.38;;;4.03;62.47
17781;BME280;8498;52.516;13.790;2023-01-28T12:24:34;102299.81;;;3.81;62.84
17781;BME280;8498;52.516;13.790;2023-01-28T12:30:17;102302.56;;;3.72;60.00
17781;BME280;8498;52.516;13.790;2023-01-28T12:36:14;102299.78;;;3.84;60.03
17781;BME280;8498;52.516;13.790;2023-01-28T12:41:42;102292.66;;;3.89;61.12
17781;BME280;8498;52.516;13.790;2023-01-28T12:47:17;102298.94;;;3.80;60.53
17781;BME280;8498;52.516;13.790;2023-01-28T12:52:46;102296.19;;;3.88;61.49
17781;BME280;8498;52.516;13.790;2023-01-28T12:58:17;102287.56;;;3.80;61.17
17781;BME280;8498;52.516;13.790;2023-01-28T13:03:50;102284.00;;;3.84;61.37
17781;BME280;8498;52.516;13.790;2023-01-28T13:09:20;102283.13;;;3.83;61.58
17781;BME280;8498;52.516;13.790;2023-01-28T13:14:44;102275.19;;;3.85;61.67
17781;BME280;8498;52.516;13.790;2023-01-28T13:20:14;102272.56;;;3.85;62.20
17781;BME280;8498;52.516;13.790;2023-01-28T13:25:47;102262.13;;;3.82;61.25
17781;BME280;8498;52.516;13.790;2023-01-28T13:31:12;102247.91;;;3.93;61.50
17781;BME280;8498;52.516;13.790;2023-01-28T13:36:44;102246.94;;;3.99;62.27
17781;BME280;8498;52.516;13.790;2023-01-28T13:47:45;102246.09;;;3.97;60.83
17781;BME280;8498;52.516;13.790;2023-01-28T13:53:39;102243.31;;;4.06;62.01
17781;BME280;8498;52.516;13.790;2023-01-28T14:21:13;102244.34;;;3.96;62.81
17781;BME280;8498;52.516;13.790;2023-01-28T14:26:52;102220.81;;;3.88;61.86
17781;BME280;8498;52.516;13.790;2023-01-28T14:32:19;102214.81;;;3.82;59.14
17781;BME280;8498;52.516;13.790;2023-01-28T14:37:43;102215.50;;;3.93;60.18
17781;BME280;8498;52.516;13.790;2023-01-28T14:43:13;102222.53;;;3.91;59.66
17781;BME280;8498;52.516;13.790;2023-01-28T14:49:14;102247.19;;;3.84;60.27
17781;BME280;8498;52.516;13.790;2023-01-28T15:00:27;102240.09;;;3.89;61.17
17781;BME280;8498;52.516;13.790;2023-01-28T15:06:01;102241.94;;;3.84;61.06
17781;BME280;8498;52.516;13.790;2023-01-28T15:11:25;102251.63;;;3.80;61.12
17781;BME280;8498;52.516;13.790;2023-01-28T15:16:48;102246.41;;;3.77;61.53
17781;BME280;8498;52.516;13.790;2023-01-28T15:22:13;102245.56;;;3.75;62.25
17781;BME280;8498;52.516;13.790;2023-01-28T15:27:36;102247.34;;;3.73;62.69
17781;BME280;8498;52.516;13.790;2023-01-28T15:33:13;102252.66;;;3.68;63.18
17781;BME280;8498;52.516;13.790;2023-01-28T15:38:36;102249.34;;;3.56;64.68
17781;BME280;8498;52.516;13.790;2023-01-28T15:43:59;102262.44;;;3.60;65.74
17781;BME280;8498;52.516;13.790;2023-01-28T15:49:30;102259.00;;;3.54;66.16
17781;BME280;8498;52.516;13.790;2023-01-28T15:54:54;102259.06;;;3.49;66.55
17781;BME280;8498;52.516;13.790;2023-01-28T16:00:19;102266.88;;;3.55;66.98
17781;BME280;8498;52.516;13.790;2023-01-28T16:05:41;102254.72;;;3.47;66.21
17781;BME280;8498;52.516;13.790;2023-01-28T16:11:21;102278.03;;;3.71;67.18
17781;BME280;8498;52.516;13.790;2023-01-28T16:16:46;102275.72;;;3.50;66.41
17781;BME280;8498;52.516;13.790;2023-01-28T16:22:18;102270.50;;;3.45;64.77
17781;BME280;8498;52.516;13.790;2023-01-28T16:27:41;102260.97;;;3.38;64.57
17781;BME280;8498;52.516;13.790;2023-01-28T16:33:04;102261.13;;;3.27;64.19
17781;BME280;8498;52.516;13.790;2023-01-28T16:38:26;102254.25;;;3.17;65.05
17781;BME280;8498;52.516;13.790;2023-01-28T16:43:49;102263.84;;;3.20;64.67
17781;BME280;8498;52.516;13.790;2023-01-28T16:49:11;102255.13;;;3.15;64.89
17781;BME280;8498;52.516;13.790;2023-01-28T16:54:34;102269.16;;;3.14;65.28
17781;BME280;8498;52.516;13.790;2023-01-28T16:59:56;102276.16;;;3.15;65.18
17781;BME280;8498;52.516;13.790;2023-01-28T17:05:19;102267.47;;;3.10;65.96
17781;BME280;8498;52.516;13.790;2023-01-28T17:10:42;102285.00;;;3.08;65.97
17781;BME280;8498;52.516;13.790;2023-01-28T17:16:04;102310.41;;;3.03;66.76
17781;BME280;8498;52.516;13.790;2023-01-28T17:21:27;102316.56;;;3.02;66.42
17781;BME280;8498;52.516;13.790;2023-01-28T17:26:51;102321.00;;;2.97;65.82
17781;BME280;8498;52.516;13.790;2023-01-28T17:32:14;102328.88;;;2.97;66.14
17781;BME280;8498;52.516;13.790;2023-01-28T17:37:36;102330.66;;;2.91;65.93
17781;BME280;8498;52.516;13.790;2023-01-28T17:42:59;102329.19;;;2.66;65.93
17781;BME280;8498;52.516;13.790;2023-01-28T17:48:21;102322.84;;;2.87;65.65
17781;BME280;8498;52.516;13.790;2023-01-28T17:53:47;102330.88;;;2.70;64.52
17781;BME280;8498;52.516;13.790;2023-01-28T17:59:10;102330.81;;;2.76;63.95
17781;BME280;8498;52.516;13.790;2023-01-28T18:04:39;102314.03;;;2.94;64.30
17781;BME280;8498;52.516;13.790;2023-01-28T18:10:03;102317.66;;;2.81;63.98
17781;BME280;8498;52.516;13.790;2023-01-28T18:15:25;102317.81;;;2.66;63.63
17781;BME280;8498;52.516;13.790;2023-01-28T18:21:04;102320.38;;;2.70;63.92
17781;BME280;8498;52.516;13.790;2023-01-28T18:26:27;102311.59;;;2.73;64.67
17781;BME280;8498;52.516;13.790;2023-01-28T18:31:50;102313.34;;;2.75;64.63
17781;BME280;8498;52.516;13.790;2023-01-28T18:37:15;102303.91;;;2.54;65.09
17781;BME280;8498;52.516;13.790;2023-01-28T18:42:38;102300.50;;;2.43;65.70
17781;BME280;8498;52.516;13.790;2023-01-28T18:48:01;102315.41;;;2.40;66.04
17781;BME280;8498;52.516;13.790;2023-01-28T18:53:23;102305.06;;;2.25;66.41
17781;BME280;8498;52.516;13.790;2023-01-28T18:58:47;102332.97;;;2.32;66.64
17781;BME280;8498;52.516;13.790;2023-01-28T19:04:09;102314.69;;;2.21;66.19
17781;BME280;8498;52.516;13.790;2023-01-28T19:09:31;102319.03;;;2.24;66.41
17781;BME280;8498;52.516;13.790;2023-01-28T19:14:54;102320.78;;;2.25;67.05
17781;BME280;8498;52.516;13.790;2023-01-28T19:20:18;102312.06;;;2.22;67.11
17781;BME280;8498;52.516;13.790;2023-01-28T19:25:40;102299.81;;;2.21;67.03
17781;BME280;8498;52.516;13.790;2023-01-28T19:31:02;102296.22;;;2.35;69.37
17781;BME280;8498;52.516;13.790;2023-01-28T19:36:27;102309.94;;;2.64;66.69
17781;BME280;8498;52.516;13.790;2023-01-28T19:41:51;102297.09;;;2.35;66.48
17781;BME280;8498;52.516;13.790;2023-01-28T19:47:13;102323.34;;;2.29;66.88
17781;BME280;8498;52.516;13.790;2023-01-28T19:52:37;102319.03;;;2.27;67.32
17781;BME280;8498;52.516;13.790;2023-01-28T19:57:59;102327.78;;;2.22;67.50
17781;BME280;8498;52.516;13.790;2023-01-28T20:03:21;102322.63;;;2.13;68.16
17781;BME280;8498;52.516;13.790;2023-01-28T20:08:44;102340.97;;;2.10;68.37
17781;BME280;8498;52.516;13.790;2023-01-28T20:14:07;102336.66;;;2.06;69.07
17781;BME280;8498;52.516;13.790;2023-01-28T20:19:29;102348.91;;;2.04;69.22
17781;BME280;8498;52.516;13.790;2023-01-28T20:24:51;102357.63;;;2.06;69.60
17781;BME280;8498;52.516;13.790;2023-01-28T20:30:18;102336.66;;;2.03;69.80
17781;BME280;8498;52.516;13.790;2023-01-28T20:35:42;102328.81;;;2.02;69.58
17781;BME280;8498;52.516;13.790;2023-01-28T20:41:05;102312.28;;;1.88;70.63
17781;BME280;8498;52.516;13.790;2023-01-28T20:46:30;102321.13;;;1.76;71.26
17781;BME280;8498;52.516;13.790;2023-01-28T20:51:53;102329.97;;;1.47;73.09
17781;BME280;8498;52.516;13.790;2023-01-28T20:57:16;102316.00;;;1.47;73.48
17781;BME280;8498;52.516;13.790;2023-01-28T21:02:39;102304.69;;;1.43;73.39
17781;BME280;8498;52.516;13.790;2023-01-28T21:08:04;102296.84;;;1.43;73.56
17781;BME280;8498;52.516;13.790;2023-01-28T21:13:26;102312.53;;;1.45;73.05
17781;BME280;8498;52.516;13.790;2023-01-28T21:18:49;102317.78;;;1.45;72.73
17781;BME280;8498;52.516;13.790;2023-01-28T21:24:12;102312.56;;;1.40;72.96
17781;BME280;8498;52.516;13.790;2023-01-28T21:29:34;102289.91;;;1.33;73.42
17781;BME280;8498;52.516;13.790;2023-01-28T21:34:56;102284.72;;;1.24;73.97
17781;BME280;8498;52.516;13.790;2023-01-28T21:40:19;102288.19;;;1.19;73.76
17781;BME280;8498;52.516;13.790;2023-01-28T21:45:44;102300.41;;;1.21;74.11
17781;BME280;8498;52.516;13.790;2023-01-28T21:51:09;102299.53;;;1.21;73.91
17781;BME280;8498;52.516;13.790;2023-01-28T21:56:50;102296.06;;;1.22;74.11
17781;BME280;8498;52.516;13.790;2023-01-28T22:02:14;102292.56;;;1.24;73.99
17781;BME280;8498;52.516;13.790;2023-01-28T22:07:36;102287.31;;;1.24;74.61
17781;BME280;8498;52.516;13.790;2023-01-28T22:12:59;102283.84;;;1.22;74.62
17781;BME280;8498;52.516;13.790;2023-01-28T22:18:21;102282.09;;;1.20;74.78
17781;BME280;8498;52.516;13.790;2023-01-28T22:23:43;102266.44;;;1.07;75.43
17781;BME280;8498;52.516;13.790;2023-01-28T22:29:06;102275.19;;;1.00;75.50
17781;BME280;8498;52.516;13.790;2023-01-28T22:34:29;102264.72;;;0.97;75.82
17781;BME280;8498;52.516;13.790;2023-01-28T22:39:51;102270.84;;;0.92;75.63
17781;BME280;8498;52.516;13.790;2023-01-28T22:45:18;102277.00;;;0.82;76.08
17781;BME280;8498;52.516;13.790;2023-01-28T22:50:40;102272.63;;;0.81;76.44
17781;BME280;8498;52.516;13.790;2023-01-28T22:56:03;102268.28;;;0.77;76.62
17781;BME280;8498;52.516;13.790;2023-01-28T23:01:26;102267.41;;;0.82;76.73
17781;BME280;8498;52.516;13.790;2023-01-28T23:06:49;102269.13;;;0.85;77.08
17781;BME280;8498;52.516;13.790;2023-01-28T23:12:11;102267.38;;;0.84;76.88
17781;BME280;8498;52.516;13.790;2023-01-28T23:17:33;102259.53;;;0.91;77.36
17781;BME280;8498;52.516;13.790;2023-01-28T23:23:15;102249.06;;;0.93;77.56
17781;BME280;8498;52.516;13.790;2023-01-28T23:28:56;102234.22;;;0.92;77.54
17781;BME280;8498;52.516;13.790;2023-01-28T23:34:21;102233.31;;;0.97;77.74
17781;BME280;8498;52.516;13.790;2023-01-28T23:39:44;102229.81;;;1.01;77.85
17781;BME280;8498;52.516;13.790;2023-01-28T23:45:07;102219.31;;;1.06;77.81
17781;BME280;8498;52.516;13.790;2023-01-28T23:50:29;102227.13;;;1.15;77.76
17781;BME280;8498;52.516;13.790;2023-01-28T23:55:52;102218.41;;;1.18;77.53
